sensor_id;sensor_type;location;lat;lon;timestamp;pressure;altitude;pressure_sealevel;temperature;humidity
7264;BME280;3673;52.480;13.348;2022-09-09T00:01:04;100610.56;;;19.61;69.98
7264;BME280;3673;52.480;13.348;2022-09-09T00:03:43;100600.56;;;19.67;69.74
7264;BME280;3673;52.480;13.348;2022-09-09T00:06:21;100612.81;;;19.71;69.63
7264;BME280;3673;52.480;13.348;2022-09-09T00:09:00;100618.22;;;19.46;70.27
7264;BME280;3673;52.480;13.348;2022-09-09T00:11:36;100623.22;;;19.31;70.94
7264;BME280;3673;52.480;13.348;2022-09-09T00:14:11;100606.91;;;19.41;71.04
7264;BME280;3673;52.480;13.348;2022-09-09T00:16:42;100609.13;;;19.52;70.28
7264;BME280;3673;52.480;13.348;2022-09-09T00:19:22;100602.13;;;19.51;70.56
7264;BME280;3673;52.480;13.348;2022-09-09T00:22:00;100610.75;;;19.56;70.36
7264;BME280;3673;52.480;13.348;2022-09-09T00:24:38;100610.50;;;19.62;69.56
7264;BME280;3673;52.480;13.348;2022-09-09T00:27:16;100601.38;;;19.69;69.66
7264;BME280;3673;52.480;13.348;2022-09-09T00:29:52;100604.00;;;19.69;69.47
7264;BME280;3673;52.480;13.348;2022-09-09T00:32:21;100598.09;;;19.63;69.87
7264;BME280;3673;52.480;13.348;2022-09-09T00:34:55;100591.38;;;19.54;69.60
7264;BME280;3673;52.480;13.348;2022-09-09T00:37:25;100595.56;;;19.60;69.77
7264;BME280;3673;52.480;13.348;2022-09-09T00:39:56;100599.56;;;19.70;69.70
7264;BME280;3673;52.480;13.348;2022-09-09T00:42:38;100598.59;;;19.72;69.34
7264;BME280;3673;52.480;13.348;2022-09-09T00:45:27;100590.44;;;19.77;68.58
7264;BME280;3673;52.480;13.348;2022-09-09T00:47:57;100594.75;;;19.79;68.21
7264;BME280;3673;52.480;13.348;2022-09-09T00:50:47;100600.13;;;19.78;68.57
7264;BME280;3673;52.480;13.348;2022-09-09T00:53:28;100591.47;;;19.94;67.88
7264;BME280;3673;52.480;13.348;2022-09-09T00:56:11;100600.06;;;19.79;67.90
7264;BME280;3673;52.480;13.348;2022-09-09T00:58:42;100590.50;;;19.75;67.86
7264;BME280;3673;52.480;13.348;2022-09-09T01:01:12;100598.84;;;19.66;68.16
7264;BME280;3673;52.480;13.348;2022-09-09T01:03:46;100596.13;;;19.68;68.15
7264;BME280;3673;52.480;13.348;2022-09-09T01:06:24;100603.59;;;19.80;67.83
7264;BME280;3673;52.480;13.348;2022-09-09T01:09:12;100606.66;;;19.69;67.95
7264;BME280;3673;52.480;13.348;2022-09-09T01:11:51;100601.78;;;19.59;68.24
7264;BME280;3673;52.480;13.348;2022-09-09T01:14:39;100609.19;;;19.72;67.60
7264;BME280;3673;52.480;13.348;2022-09-09T01:17:15;100603.47;;;19.61;67.98
7264;BME280;3673;52.480;13.348;2022-09-09T01:19:58;100616.41;;;19.69;67.76
7264;BME280;3673;52.480;13.348;2022-09-09T01:22:36;100615.88;;;19.61;67.47
7264;BME280;3673;52.480;13.348;2022-09-09T01:25:22;100613.22;;;19.61;67.78
7264;BME280;3673;52.480;13.348;2022-09-09T01:28:00;100597.47;;;19.56;67.54
7264;BME280;3673;52.480;13.348;2022-09-09T01:33:02;100606.19;;;19.60;67.32
7264;BME280;3673;52.480;13.348;2022-09-09T01:35:39;100611.00;;;19.72;67.20
7264;BME280;3673;52.480;13.348;2022-09-09T01:38:10;100596.06;;;19.69;66.75
7264;BME280;3673;52.480;13.348;2022-09-09T01:40:37;100603.56;;;19.58;66.81
7264;BME280;3673;52.480;13.348;2022-09-09T01:43:06;100613.16;;;19.39;67.44
7264;BME280;3673;52.480;13.348;2022-09-09T01:45:33;100607.59;;;19.23;67.87
7264;BME280;3673;52.480;13.348;2022-09-09T01:48:01;100606.09;;;19.16;68.20
7264;BME280;3673;52.480;13.348;2022-09-09T01:50:29;100600.88;;;19.15;68.31
7264;BME280;3673;52.480;13.348;2022-09-09T01:53:00;100601.31;;;19.26;68.06
7264;BME280;3673;52.480;13.348;2022-09-09T01:55:30;100599.22;;;19.34;67.57
7264;BME280;3673;52.480;13.348;2022-09-09T01:58:16;100599.34;;;19.31;67.70
7264;BME280;3673;52.480;13.348;2022-09-09T02:00:55;100597.22;;;19.17;68.10
7264;BME280;3673;52.480;13.348;2022-09-09T02:03:27;100611.53;;;19.13;68.33
7264;BME280;3673;52.480;13.348;2022-09-09T02:06:03;100594.59;;;18.94;68.68
7264;BME280;3673;52.480;13.348;2022-09-09T02:08:40;100610.25;;;19.00;68.46
7264;BME280;3673;52.480;13.348;2022-09-09T02:11:13;100609.78;;;18.89;68.66
7264;BME280;3673;52.480;13.348;2022-09-09T02:13:45;100617.41;;;18.98;68.67
7264;BME280;3673;52.480;13.348;2022-09-09T02:16:17;100615.28;;;19.08;68.08
7264;BME280;3673;52.480;13.348;2022-09-09T02:18:51;100611.91;;;19.02;67.99
7264;BME280;3673;52.480;13.348;2022-09-09T02:21:21;100611.16;;;18.99;68.31
7264;BME280;3673;52.480;13.348;2022-09-09T02:23:50;100619.25;;;18.96;68.16
7264;BME280;3673;52.480;13.348;2022-09-09T02:26:20;100611.88;;;19.04;68.10
7264;BME280;3673;52.480;13.348;2022-09-09T02:28:52;100614.13;;;19.15;67.89
7264;BME280;3673;52.480;13.348;2022-09-09T02:31:23;100611.16;;;19.22;67.46
7264;BME280;3673;52.480;13.348;2022-09-09T02:33:54;100604.56;;;19.11;67.63
7264;BME280;3673;52.480;13.348;2022-09-09T02:36:25;100610.38;;;19.20;67.28
7264;BME280;3673;52.480;13.348;2022-09-09T02:38:54;100609.38;;;19.23;67.40
7264;BME280;3673;52.480;13.348;2022-09-09T02:41:28;100602.91;;;19.30;66.67
7264;BME280;3673;52.480;13.348;2022-09-09T02:43:59;100607.72;;;19.20;66.80
7264;BME280;3673;52.480;13.348;2022-09-09T02:47:00;100605.50;;;19.08;67.08
7264;BME280;3673;52.480;13.348;2022-09-09T02:49:43;100610.53;;;19.16;67.16
7264;BME280;3673;52.480;13.348;2022-09-09T02:52:18;100608.41;;;19.02;67.42
7264;BME280;3673;52.480;13.348;2022-09-09T02:54:50;100610.31;;;18.98;67.67
7264;BME280;3673;52.480;13.348;2022-09-09T02:57:25;100606.50;;;18.82;68.06
7264;BME280;3673;52.480;13.348;2022-09-09T02:59:57;100590.47;;;18.85;67.77
7264;BME280;3673;52.480;13.348;2022-09-09T03:02:26;100601.56;;;18.96;67.64
7264;BME280;3673;52.480;13.348;2022-09-09T03:04:53;100617.47;;;18.96;67.63
7264;BME280;3673;52.480;13.348;2022-09-09T03:07:21;100616.75;;;18.91;67.68
7264;BME280;3673;52.480;13.348;2022-09-09T03:09:48;100616.44;;;19.00;67.25
7264;BME280;3673;52.480;13.348;2022-09-09T03:12:15;100607.22;;;19.11;66.90
7264;BME280;3673;52.480;13.348;2022-09-09T03:14:43;100620.50;;;19.09;66.89
7264;BME280;3673;52.480;13.348;2022-09-09T03:17:12;100618.59;;;19.13;66.43
7264;BME280;3673;52.480;13.348;2022-09-09T03:19:40;100629.50;;;19.05;66.78
7264;BME280;3673;52.480;13.348;2022-09-09T03:22:09;100632.97;;;19.07;66.73
7264;BME280;3673;52.480;13.348;2022-09-09T03:24:36;100633.88;;;19.06;66.38
7264;BME280;3673;52.480;13.348;2022-09-09T03:27:03;100639.34;;;19.01;66.83
7264;BME280;3673;52.480;13.348;2022-09-09T03:29:30;100634.25;;;18.97;66.58
7264;BME280;3673;52.480;13.348;2022-09-09T03:31:58;100634.34;;;18.94;66.63
7264;BME280;3673;52.480;13.348;2022-09-09T03:34:26;100619.50;;;18.88;66.79
7264;BME280;3673;52.480;13.348;2022-09-09T03:36:54;100635.91;;;18.99;66.44
7264;BME280;3673;52.480;13.348;2022-09-09T03:39:21;100621.34;;;18.88;66.64
7264;BME280;3673;52.480;13.348;2022-09-09T03:41:48;100636.19;;;18.92;66.55
7264;BME280;3673;52.480;13.348;2022-09-09T03:44:15;100643.34;;;18.90;66.51
7264;BME280;3673;52.480;13.348;2022-09-09T03:46:42;100638.84;;;18.92;66.47
7264;BME280;3673;52.480;13.348;2022-09-09T03:49:09;100638.41;;;18.79;66.80
7264;BME280;3673;52.480;13.348;2022-09-09T03:51:38;100640.91;;;18.84;66.91
7264;BME280;3673;52.480;13.348;2022-09-09T03:54:06;100641.66;;;18.87;66.95
7264;BME280;3673;52.480;13.348;2022-09-09T03:56:36;100646.97;;;18.87;66.55
7264;BME280;3673;52.480;13.348;2022-09-09T03:59:03;100639.19;;;18.83;66.76
7264;BME280;3673;52.480;13.348;2022-09-09T04:01:30;100634.50;;;18.89;66.52
7264;BME280;3673;52.480;13.348;2022-09-09T04:03:57;100637.28;;;18.86;66.39
7264;BME280;3673;52.480;13.348;2022-09-09T04:06:25;100615.91;;;18.91;65.92
7264;BME280;3673;52.480;13.348;2022-09-09T04:08:54;100627.28;;;18.94;66.02
7264;BME280;3673;52.480;13.348;2022-09-09T04:11:21;100629.44;;;18.83;66.22
7264;BME280;3673;52.480;13.348;2022-09-09T04:13:48;100635.78;;;19.02;65.64
7264;BME280;3673;52.480;13.348;2022-09-09T04:16:15;100631.94;;;18.88;66.10
7264;BME280;3673;52.480;13.348;2022-09-09T04:18:42;100623.72;;;18.71;66.27
7264;BME280;3673;52.480;13.348;2022-09-09T04:21:10;100628.16;;;18.70;66.42
7264;BME280;3673;52.480;13.348;2022-09-09T04:23:38;100623.25;;;18.60;66.64
7264;BME280;3673;52.480;13.348;2022-09-09T04:26:07;100644.47;;;18.32;67.97
7264;BME280;3673;52.480;13.348;2022-09-09T04:28:36;100646.78;;;18.42;67.59
7264;BME280;3673;52.480;13.348;2022-09-09T04:31:07;100650.53;;;18.62;66.97
7264;BME280;3673;52.480;13.348;2022-09-09T04:33:35;100647.25;;;18.55;67.23
7264;BME280;3673;52.480;13.348;2022-09-09T04:36:02;100640.50;;;18.71;66.91
7264;BME280;3673;52.480;13.348;2022-09-09T04:38:29;100641.19;;;18.76;66.66
7264;BME280;3673;52.480;13.348;2022-09-09T04:40:56;100656.72;;;18.87;65.79
7264;BME280;3673;52.480;13.348;2022-09-09T04:43:25;100649.75;;;18.84;65.79
7264;BME280;3673;52.480;13.348;2022-09-09T04:45:56;100653.97;;;18.88;65.87
7264;BME280;3673;52.480;13.348;2022-09-09T04:48:25;100659.84;;;18.98;65.32
7264;BME280;3673;52.480;13.348;2022-09-09T04:50:59;100661.78;;;18.93;65.14
7264;BME280;3673;52.480;13.348;2022-09-09T04:53:27;100659.50;;;18.82;65.82
7264;BME280;3673;52.480;13.348;2022-09-09T04:56:03;100668.41;;;18.81;66.04
7264;BME280;3673;52.480;13.348;2022-09-09T04:58:32;100674.00;;;18.97;65.54
7264;BME280;3673;52.480;13.348;2022-09-09T05:01:06;100673.16;;;18.96;65.31
7264;BME280;3673;52.480;13.348;2022-09-09T05:03:34;100669.78;;;18.91;65.51
7264;BME280;3673;52.480;13.348;2022-09-09T05:06:06;100673.28;;;18.92;65.42
7264;BME280;3673;52.480;13.348;2022-09-09T05:08:34;100674.25;;;18.91;65.36
7264;BME280;3673;52.480;13.348;2022-09-09T05:11:01;100673.03;;;18.99;65.12
7264;BME280;3673;52.480;13.348;2022-09-09T05:13:28;100644.38;;;18.86;65.24
7264;BME280;3673;52.480;13.348;2022-09-09T05:15:58;100678.09;;;19.06;65.31
7264;BME280;3673;52.480;13.348;2022-09-09T05:18:25;100680.72;;;19.07;64.93
7264;BME280;3673;52.480;13.348;2022-09-09T05:20:52;100668.47;;;19.03;65.27
7264;BME280;3673;52.480;13.348;2022-09-09T05:23:24;100675.44;;;19.06;65.67
7264;BME280;3673;52.480;13.348;2022-09-09T05:25:58;100671.72;;;19.11;65.24
7264;BME280;3673;52.480;13.348;2022-09-09T05:28:26;100659.84;;;19.21;64.95
7264;BME280;3673;52.480;13.348;2022-09-09T05:30:59;100658.88;;;19.24;65.05
7264;BME280;3673;52.480;13.348;2022-09-09T05:33:29;100673.19;;;19.18;65.30
7264;BME280;3673;52.480;13.348;2022-09-09T05:36:02;100666.22;;;19.16;65.10
7264;BME280;3673;52.480;13.348;2022-09-09T05:38:30;100667.75;;;19.23;65.10
7264;BME280;3673;52.480;13.348;2022-09-09T05:40:58;100673.50;;;19.34;64.73
7264;BME280;3673;52.480;13.348;2022-09-09T05:43:26;100671.09;;;19.28;64.60
7264;BME280;3673;52.480;13.348;2022-09-09T05:46:04;100664.56;;;19.13;64.97
7264;BME280;3673;52.480;13.348;2022-09-09T05:48:33;100663.44;;;19.43;64.51
7264;BME280;3673;52.480;13.348;2022-09-09T05:51:02;100665.84;;;19.26;64.78
7264;BME280;3673;52.480;13.348;2022-09-09T05:53:30;100676.97;;;19.36;64.82
7264;BME280;3673;52.480;13.348;2022-09-09T05:56:01;100685.00;;;19.11;66.07
7264;BME280;3673;52.480;13.348;2022-09-09T05:58:30;100674.16;;;18.92;65.83
7264;BME280;3673;52.480;13.348;2022-09-09T06:01:04;100682.22;;;19.14;65.34
7264;BME280;3673;52.480;13.348;2022-09-09T06:03:32;100686.56;;;19.15;65.00
7264;BME280;3673;52.480;13.348;2022-09-09T06:06:01;100687.56;;;19.36;64.91
7264;BME280;3673;52.480;13.348;2022-09-09T06:08:31;100693.81;;;18.87;65.29
7264;BME280;3673;52.480;13.348;2022-09-09T06:11:03;100668.81;;;18.94;66.01
7264;BME280;3673;52.480;13.348;2022-09-09T06:13:33;100711.69;;;19.05;65.93
7264;BME280;3673;52.480;13.348;2022-09-09T06:16:08;100689.69;;;19.03;65.62
7264;BME280;3673;52.480;13.348;2022-09-09T06:18:37;100695.16;;;19.46;64.69
7264;BME280;3673;52.480;13.348;2022-09-09T06:21:11;100681.63;;;19.29;64.67
7264;BME280;3673;52.480;13.348;2022-09-09T06:23:41;100682.06;;;19.42;64.55
7264;BME280;3673;52.480;13.348;2022-09-09T06:26:12;100690.09;;;19.40;64.47
7264;BME280;3673;52.480;13.348;2022-09-09T06:28:40;100696.06;;;19.45;64.66
7264;BME280;3673;52.480;13.348;2022-09-09T06:31:12;100682.78;;;19.69;63.84
7264;BME280;3673;52.480;13.348;2022-09-09T06:33:41;100681.72;;;19.51;64.13
7264;BME280;3673;52.480;13.348;2022-09-09T06:36:12;100706.38;;;19.30;64.78
7264;BME280;3673;52.480;13.348;2022-09-09T06:38:40;100708.16;;;19.54;64.36
7264;BME280;3673;52.480;13.348;2022-09-09T06:41:09;100711.78;;;19.75;63.80
7264;BME280;3673;52.480;13.348;2022-09-09T06:43:36;100705.09;;;19.65;63.97
7264;BME280;3673;52.480;13.348;2022-09-09T06:46:05;100711.56;;;19.79;63.46
7264;BME280;3673;52.480;13.348;2022-09-09T06:48:35;100715.09;;;19.80;63.45
7264;BME280;3673;52.480;13.348;2022-09-09T06:51:13;100708.31;;;19.94;63.17
7264;BME280;3673;52.480;13.348;2022-09-09T06:53:42;100708.44;;;20.13;62.73
7264;BME280;3673;52.480;13.348;2022-09-09T06:56:22;100708.25;;;20.18;62.30
7264;BME280;3673;52.480;13.348;2022-09-09T06:58:50;100711.03;;;20.36;61.73
7264;BME280;3673;52.480;13.348;2022-09-09T07:01:20;100695.84;;;20.40;61.05
7264;BME280;3673;52.480;13.348;2022-09-09T07:03:51;100694.94;;;20.61;61.10
7264;BME280;3673;52.480;13.348;2022-09-09T07:06:21;100690.69;;;20.57;60.71
7264;BME280;3673;52.480;13.348;2022-09-09T07:08:50;100706.06;;;20.49;60.81
7264;BME280;3673;52.480;13.348;2022-09-09T07:11:19;100718.38;;;20.72;60.47
7264;BME280;3673;52.480;13.348;2022-09-09T07:13:46;100707.25;;;20.84;59.96
7264;BME280;3673;52.480;13.348;2022-09-09T07:16:15;100706.84;;;21.13;59.26
7264;BME280;3673;52.480;13.348;2022-09-09T07:18:43;100710.47;;;21.31;58.56
7264;BME280;3673;52.480;13.348;2022-09-09T07:21:14;100710.78;;;21.43;58.04
7264;BME280;3673;52.480;13.348;2022-09-09T07:23:41;100708.41;;;21.56;57.54
7264;BME280;3673;52.480;13.348;2022-09-09T07:26:10;100715.09;;;21.46;58.19
7264;BME280;3673;52.480;13.348;2022-09-09T07:28:39;100707.97;;;21.84;56.83
7264;BME280;3673;52.480;13.348;2022-09-09T07:31:13;100700.56;;;21.53;57.17
7264;BME280;3673;52.480;13.348;2022-09-09T07:33:43;100711.00;;;21.76;57.00
7264;BME280;3673;52.480;13.348;2022-09-09T07:36:14;100706.88;;;22.06;56.62
7264;BME280;3673;52.480;13.348;2022-09-09T07:38:45;100701.28;;;22.30;55.48
7264;BME280;3673;52.480;13.348;2022-09-09T07:41:16;100705.66;;;22.67;54.68
7264;BME280;3673;52.480;13.348;2022-09-09T07:43:46;100719.38;;;22.76;54.17
7264;BME280;3673;52.480;13.348;2022-09-09T07:46:16;100721.88;;;22.45;54.61
7264;BME280;3673;52.480;13.348;2022-09-09T07:48:44;100713.38;;;22.37;55.44
7264;BME280;3673;52.480;13.348;2022-09-09T07:51:15;100715.53;;;22.65;54.65
7264;BME280;3673;52.480;13.348;2022-09-09T07:53:44;100726.47;;;22.58;54.94
7264;BME280;3673;52.480;13.348;2022-09-09T07:56:14;100716.56;;;22.79;54.24
7264;BME280;3673;52.480;13.348;2022-09-09T07:58:44;100719.75;;;22.86;53.73
7264;BME280;3673;52.480;13.348;2022-09-09T08:01:16;100721.66;;;22.67;54.23
7264;BME280;3673;52.480;13.348;2022-09-09T08:03:45;100719.16;;;22.81;54.19
7264;BME280;3673;52.480;13.348;2022-09-09T08:06:16;100711.84;;;23.01;53.41
7264;BME280;3673;52.480;13.348;2022-09-09T08:08:44;100726.72;;;23.05;53.50
7264;BME280;3673;52.480;13.348;2022-09-09T08:11:14;100711.16;;;22.81;53.86
7264;BME280;3673;52.480;13.348;2022-09-09T08:13:43;100730.13;;;22.92;53.62
7264;BME280;3673;52.480;13.348;2022-09-09T08:16:13;100718.19;;;22.82;53.60
7264;BME280;3673;52.480;13.348;2022-09-09T08:18:40;100741.81;;;22.89;53.68
7264;BME280;3673;52.480;13.348;2022-09-09T08:21:10;100729.72;;;22.99;53.76
7264;BME280;3673;52.480;13.348;2022-09-09T08:23:40;100738.94;;;22.94;53.80
7264;BME280;3673;52.480;13.348;2022-09-09T08:26:11;100734.91;;;22.85;54.15
7264;BME280;3673;52.480;13.348;2022-09-09T08:28:39;100730.44;;;23.03;53.26
7264;BME280;3673;52.480;13.348;2022-09-09T08:31:13;100734.66;;;23.24;52.93
7264;BME280;3673;52.480;13.348;2022-09-09T08:33:40;100732.44;;;23.15;53.04
7264;BME280;3673;52.480;13.348;2022-09-09T08:36:11;100744.88;;;23.32;52.99
7264;BME280;3673;52.480;13.348;2022-09-09T08:38:40;100736.66;;;23.36;52.31
7264;BME280;3673;52.480;13.348;2022-09-09T08:44:21;100733.97;;;23.03;53.48
7264;BME280;3673;52.480;13.348;2022-09-09T08:46:58;100735.94;;;23.00;53.03
7264;BME280;3673;52.480;13.348;2022-09-09T08:49:57;100740.69;;;23.28;52.85
7264;BME280;3673;52.480;13.348;2022-09-09T08:52:30;100739.91;;;23.58;52.54
7264;BME280;3673;52.480;13.348;2022-09-09T08:55:11;100739.50;;;23.66;52.75
7264;BME280;3673;52.480;13.348;2022-09-09T08:57:41;100743.09;;;23.49;52.30
7264;BME280;3673;52.480;13.348;2022-09-09T09:00:12;100733.03;;;23.70;51.92
7264;BME280;3673;52.480;13.348;2022-09-09T09:02:45;100728.44;;;23.56;52.28
7264;BME280;3673;52.480;13.348;2022-09-09T09:05:20;100742.19;;;23.82;51.50
7264;BME280;3673;52.480;13.348;2022-09-09T09:07:58;100741.78;;;23.41;52.47
7264;BME280;3673;52.480;13.348;2022-09-09T09:10:41;100752.13;;;23.30;52.75
7264;BME280;3673;52.480;13.348;2022-09-09T09:13:16;100744.34;;;23.42;52.07
7264;BME280;3673;52.480;13.348;2022-09-09T09:15:50;100748.91;;;23.89;50.83
7264;BME280;3673;52.480;13.348;2022-09-09T09:18:19;100750.69;;;23.73;50.64
7264;BME280;3673;52.480;13.348;2022-09-09T09:20:55;100738.06;;;24.07;50.29
7264;BME280;3673;52.480;13.348;2022-09-09T09:23:34;100740.13;;;24.34;49.83
7264;BME280;3673;52.480;13.348;2022-09-09T09:26:10;100748.44;;;24.59;49.45
7264;BME280;3673;52.480;13.348;2022-09-09T09:28:37;100739.03;;;24.97;48.22
7264;BME280;3673;52.480;13.348;2022-09-09T09:31:08;100734.28;;;25.31;47.71
7264;BME280;3673;52.480;13.348;2022-09-09T09:33:44;100731.00;;;25.96;45.84
7264;BME280;3673;52.480;13.348;2022-09-09T09:36:14;100733.22;;;26.57;43.94
7264;BME280;3673;52.480;13.348;2022-09-09T09:38:53;100732.56;;;26.54;43.56
7264;BME280;3673;52.480;13.348;2022-09-09T09:41:32;100735.34;;;26.26;44.04
7264;BME280;3673;52.480;13.348;2022-09-09T09:44:02;100728.50;;;27.13;42.51
7264;BME280;3673;52.480;13.348;2022-09-09T09:46:30;100735.00;;;26.44;43.90
7264;BME280;3673;52.480;13.348;2022-09-09T09:48:59;100733.31;;;26.56;43.32
7264;BME280;3673;52.480;13.348;2022-09-09T09:51:29;100731.94;;;27.15;41.80
7264;BME280;3673;52.480;13.348;2022-09-09T09:54:15;100728.28;;;27.16;41.73
7264;BME280;3673;52.480;13.348;2022-09-09T09:56:45;100733.53;;;27.81;41.63
7264;BME280;3673;52.480;13.348;2022-09-09T09:59:33;100721.63;;;28.08;40.65
7264;BME280;3673;52.480;13.348;2022-09-09T10:02:16;100727.66;;;27.50;41.34
7264;BME280;3673;52.480;13.348;2022-09-09T10:04:44;100725.59;;;28.03;40.11
7264;BME280;3673;52.480;13.348;2022-09-09T10:07:12;100727.47;;;28.74;39.18
7264;BME280;3673;52.480;13.348;2022-09-09T10:09:39;100737.53;;;27.62;41.14
7264;BME280;3673;52.480;13.348;2022-09-09T10:12:17;100741.75;;;27.54;41.25
7264;BME280;3673;52.480;13.348;2022-09-09T10:14:55;100733.13;;;27.49;41.45
7264;BME280;3673;52.480;13.348;2022-09-09T10:17:33;100728.38;;;27.78;40.66
7264;BME280;3673;52.480;13.348;2022-09-09T10:20:22;100738.06;;;27.30;41.35
7264;BME280;3673;52.480;13.348;2022-09-09T10:23:05;100736.25;;;27.68;40.47
7264;BME280;3673;52.480;13.348;2022-09-09T10:25:59;100733.44;;;27.19;41.46
7264;BME280;3673;52.480;13.348;2022-09-09T10:28:55;100735.91;;;27.09;41.51
7264;BME280;3673;52.480;13.348;2022-09-09T10:31:31;100732.81;;;27.28;41.73
7264;BME280;3673;52.480;13.348;2022-09-09T10:34:19;100742.59;;;27.54;41.53
7264;BME280;3673;52.480;13.348;2022-09-09T10:36:50;100729.88;;;27.82;40.50
7264;BME280;3673;52.480;13.348;2022-09-09T10:39:33;100743.50;;;27.91;40.04
7264;BME280;3673;52.480;13.348;2022-09-09T10:42:06;100732.56;;;27.82;40.33
7264;BME280;3673;52.480;13.348;2022-09-09T10:44:50;100731.25;;;27.87;39.77
7264;BME280;3673;52.480;13.348;2022-09-09T10:50:50;100741.50;;;27.32;40.90
7264;BME280;3673;52.480;13.348;2022-09-09T10:53:32;100732.84;;;28.26;39.38
7264;BME280;3673;52.480;13.348;2022-09-09T10:56:06;100739.16;;;28.61;38.15
7264;BME280;3673;52.480;13.348;2022-09-09T10:58:40;100741.28;;;29.15;37.35
7264;BME280;3673;52.480;13.348;2022-09-09T11:01:17;100743.13;;;29.14;37.61
7264;BME280;3673;52.480;13.348;2022-09-09T11:03:52;100740.63;;;29.00;37.20
7264;BME280;3673;52.480;13.348;2022-09-09T11:06:28;100733.75;;;28.61;38.09
7264;BME280;3673;52.480;13.348;2022-09-09T11:09:00;100720.16;;;27.79;39.99
7264;BME280;3673;52.480;13.348;2022-09-09T11:11:34;100733.44;;;27.70;40.26
7264;BME280;3673;52.480;13.348;2022-09-09T11:14:08;100730.88;;;27.68;40.52
7264;BME280;3673;52.480;13.348;2022-09-09T11:16:41;100727.91;;;27.84;40.72
7264;BME280;3673;52.480;13.348;2022-09-09T11:19:16;100732.91;;;28.61;39.18
7264;BME280;3673;52.480;13.348;2022-09-09T11:21:46;100709.94;;;28.21;39.97
7264;BME280;3673;52.480;13.348;2022-09-09T11:24:21;100736.22;;;28.99;38.91
7264;BME280;3673;52.480;13.348;2022-09-09T11:26:53;100721.59;;;29.92;36.90
7264;BME280;3673;52.480;13.348;2022-09-09T11:29:51;100722.97;;;30.30;35.60
7264;BME280;3673;52.480;13.348;2022-09-09T11:32:44;100733.03;;;29.51;36.62
7264;BME280;3673;52.480;13.348;2022-09-09T11:35:30;100733.84;;;29.30;36.53
7264;BME280;3673;52.480;13.348;2022-09-09T11:38:16;100733.22;;;28.80;37.25
7264;BME280;3673;52.480;13.348;2022-09-09T11:40:45;100726.25;;;28.78;37.39
7264;BME280;3673;52.480;13.348;2022-09-09T11:43:17;100731.78;;;28.87;37.14
7264;BME280;3673;52.480;13.348;2022-09-09T11:45:52;100727.50;;;29.53;35.99
7264;BME280;3673;52.480;13.348;2022-09-09T11:48:30;100717.91;;;30.36;34.47
7264;BME280;3673;52.480;13.348;2022-09-09T11:51:03;100714.84;;;29.98;34.65
7264;BME280;3673;52.480;13.348;2022-09-09T11:53:33;100706.56;;;30.22;34.19
7264;BME280;3673;52.480;13.348;2022-09-09T11:56:10;100699.91;;;31.10;32.89
7264;BME280;3673;52.480;13.348;2022-09-09T11:58:44;100699.84;;;31.21;32.87
7264;BME280;3673;52.480;13.348;2022-09-09T12:01:38;100704.56;;;31.99;32.04
7264;BME280;3673;52.480;13.348;2022-09-09T12:04:13;100703.19;;;32.14;31.57
7264;BME280;3673;52.480;13.348;2022-09-09T12:06:44;100699.00;;;31.51;31.64
7264;BME280;3673;52.480;13.348;2022-09-09T12:09:22;100691.47;;;31.54;31.78
7264;BME280;3673;52.480;13.348;2022-09-09T12:11:50;100685.19;;;32.03;31.56
7264;BME280;3673;52.480;13.348;2022-09-09T12:14:23;100684.53;;;32.40;31.32
7264;BME280;3673;52.480;13.348;2022-09-09T12:17:17;100683.94;;;32.94;31.02
7264;BME280;3673;52.480;13.348;2022-09-09T12:19:47;100683.69;;;33.34;29.22
7264;BME280;3673;52.480;13.348;2022-09-09T12:22:23;100685.53;;;32.48;30.04
7264;BME280;3673;52.480;13.348;2022-09-09T12:25:00;100681.50;;;31.55;30.65
7264;BME280;3673;52.480;13.348;2022-09-09T12:27:36;100677.00;;;30.93;31.81
7264;BME280;3673;52.480;13.348;2022-09-09T12:30:11;100678.81;;;30.83;32.16
7264;BME280;3673;52.480;13.348;2022-09-09T12:32:40;100674.97;;;30.33;33.29
7264;BME280;3673;52.480;13.348;2022-09-09T12:35:15;100673.13;;;30.45;33.55
7264;BME280;3673;52.480;13.348;2022-09-09T12:37:50;100667.66;;;30.24;33.17
7264;BME280;3673;52.480;13.348;2022-09-09T12:40:23;100660.84;;;29.55;34.46
7264;BME280;3673;52.480;13.348;2022-09-09T12:42:50;100668.16;;;29.53;34.84
7264;BME280;3673;52.480;13.348;2022-09-09T12:45:20;100656.66;;;29.51;35.40
7264;BME280;3673;52.480;13.348;2022-09-09T12:47:50;100662.81;;;29.42;35.48
7264;BME280;3673;52.480;13.348;2022-09-09T12:50:23;100657.75;;;29.15;35.67
7264;BME280;3673;52.480;13.348;2022-09-09T12:52:55;100670.94;;;28.96;36.01
7264;BME280;3673;52.480;13.348;2022-09-09T12:55:27;100652.06;;;28.74;36.18
7264;BME280;3673;52.480;13.348;2022-09-09T12:57:56;100675.19;;;28.76;36.52
7264;BME280;3673;52.480;13.348;2022-09-09T13:00:26;100663.50;;;28.30;36.54
7264;BME280;3673;52.480;13.348;2022-09-09T13:02:55;100685.13;;;28.04;36.68
7264;BME280;3673;52.480;13.348;2022-09-09T13:05:26;100679.56;;;27.71;37.09
7264;BME280;3673;52.480;13.348;2022-09-09T13:08:01;100680.09;;;27.63;37.45
7264;BME280;3673;52.480;13.348;2022-09-09T13:10:34;100683.94;;;27.72;37.69
7264;BME280;3673;52.480;13.348;2022-09-09T13:13:04;100677.75;;;27.34;37.62
7264;BME280;3673;52.480;13.348;2022-09-09T13:15:32;100676.16;;;27.31;38.08
7264;BME280;3673;52.480;13.348;2022-09-09T13:18:05;100654.88;;;26.65;39.08
7264;BME280;3673;52.480;13.348;2022-09-09T13:20:35;100669.19;;;27.16;39.07
7264;BME280;3673;52.480;13.348;2022-09-09T13:23:03;100663.03;;;27.39;38.21
7264;BME280;3673;52.480;13.348;2022-09-09T13:25:30;100667.41;;;27.66;38.32
7264;BME280;3673;52.480;13.348;2022-09-09T13:27:59;100654.19;;;27.62;38.36
7264;BME280;3673;52.480;13.348;2022-09-09T13:30:29;100659.00;;;27.08;39.34
7264;BME280;3673;52.480;13.348;2022-09-09T13:33:06;100654.53;;;27.58;38.72
7264;BME280;3673;52.480;13.348;2022-09-09T13:35:35;100641.25;;;28.28;37.09
7264;BME280;3673;52.480;13.348;2022-09-09T13:38:07;100636.69;;;29.42;35.31